sensor_id;sensor_type;location;lat;lon;timestamp;temperature;humidity
10905;DHT22;5505;51.450;9.254;2022-10-16T00:00:12;14.10;99.90
10905;DHT22;5505;51.450;9.254;2022-10-16T00:02:59;14.10;99.90
10905;DHT22;5505;51.450;9.254;2022-10-16T00:05:46;14.20;99.90
10905;DHT22;5505;51.450;9.254;2022-10-16T00:08:33;14.20;99.90
10905;DHT22;5505;51.450;9.254;2022-10-16T00:11:22;14.20;99.90
10905;DHT22;5505;51.450;9.254;2022-10-16T00:14:12;14.20;99.90
10905;DHT22;5505;51.450;9.254;2022-10-16T00:17:01;14.20;99.90
10905;DHT22;5505;51.450;9.254;2022-10-16T00:19:48;14.30;99.90
10905;DHT22;5505;51.450;9.254;2022-10-16T00:22:34;14.20;99.90
10905;DHT22;5505;51.450;9.254;2022-10-16T00:25:21;14.20;99.90
10905;DHT22;5505;51.450;9.254;2022-10-16T00:28:08;14.40;99.90
10905;DHT22;5505;51.450;9.254;2022-10-16T00:30:55;14.10;99.90
10905;DHT22;5505;51.450;9.254;2022-10-16T00:33:44;14.10;99.90
10905;DHT22;5505;51.450;9.254;2022-10-16T00:36:31;14.10;99.90
10905;DHT22;5505;51.450;9.254;2022-10-16T00:39:18;14.10;99.90
10905;DHT22;5505;51.450;9.254;2022-10-16T00:42:04;14.10;99.90
10905;DHT22;5505;51.450;9.254;2022-10-16T00:44:53;14.10;99.90
10905;DHT22;5505;51.450;9.254;2022-10-16T00:47:43;14.00;99.90
10905;DHT22;5505;51.450;9.254;2022-10-16T00:50:35;14.00;99.90
10905;DHT22;5505;51.450;9.254;2022-10-16T00:53:25;14.00;99.90
10905;DHT22;5505;51.450;9.254;2022-10-16T00:56:12;14.00;99.90
10905;DHT22;5505;51.450;9.254;2022-10-16T00:59:00;14.00;99.90
10905;DHT22;5505;51.450;9.254;2022-10-16T01:01:48;14.00;99.90
10905;DHT22;5505;51.450;9.254;2022-10-16T01:04:37;13.90;99.90
10905;DHT22;5505;51.450;9.254;2022-10-16T01:07:36;13.90;99.90
10905;DHT22;5505;51.450;9.254;2022-10-16T01:10:27;13.90;99.90
10905;DHT22;5505;51.450;9.254;2022-10-16T01:13:21;13.90;99.90
10905;DHT22;5505;51.450;9.254;2022-10-16T01:16:14;14.60;99.90
10905;DHT22;5505;51.450;9.254;2022-10-16T01:19:08;13.80;99.90
10905;DHT22;5505;51.450;9.254;2022-10-16T01:21:58;13.80;99.90
10905;DHT22;5505;51.450;9.254;2022-10-16T01:24:49;13.80;99.90
10905;DHT22;5505;51.450;9.254;2022-10-16T01:27:38;13.80;99.90
10905;DHT22;5505;51.450;9.254;2022-10-16T01:30:30;13.80;99.90
10905;DHT22;5505;51.450;9.254;2022-10-16T01:33:21;13.70;99.90
10905;DHT22;5505;51.450;9.254;2022-10-16T01:36:13;13.70;99.90
10905;DHT22;5505;51.450;9.254;2022-10-16T01:39:02;13.60;99.90
10905;DHT22;5505;51.450;9.254;2022-10-16T01:41:53;13.70;99.90
10905;DHT22;5505;51.450;9.254;2022-10-16T01:44:43;13.70;99.90
10905;DHT22;5505;51.450;9.254;2022-10-16T01:47:32;13.60;99.90
10905;DHT22;5505;51.450;9.254;2022-10-16T01:50:20;13.60;99.90
10905;DHT22;5505;51.450;9.254;2022-10-16T01:53:11;13.60;99.90
10905;DHT22;5505;51.450;9.254;2022-10-16T01:55:59;13.60;99.90
10905;DHT22;5505;51.450;9.254;2022-10-16T01:58:51;13.60;99.90
10905;DHT22;5505;51.450;9.254;2022-10-16T02:01:44;13.60;99.90
10905;DHT22;5505;51.450;9.254;2022-10-16T02:04:36;13.70;99.90
10905;DHT22;5505;51.450;9.254;2022-10-16T02:07:24;13.70;99.90
10905;DHT22;5505;51.450;9.254;2022-10-16T02:10:11;13.60;99.90
10905;DHT22;5505;51.450;9.254;2022-10-16T02:13:00;13.70;99.90
10905;DHT22;5505;51.450;9.254;2022-10-16T02:15:48;13.70;99.90
10905;DHT22;5505;51.450;9.254;2022-10-16T02:18:36;15.40;99.90
10905;DHT22;5505;51.450;9.254;2022-10-16T02:21:25;13.90;99.90
10905;DHT22;5505;51.450;9.254;2022-10-16T02:24:20;13.90;99.90
10905;DHT22;5505;51.450;9.254;2022-10-16T02:27:11;13.80;99.90
10905;DHT22;5505;51.450;9.254;2022-10-16T02:30:03;13.80;99.90
10905;DHT22;5505;51.450;9.254;2022-10-16T02:32:53;13.80;99.90
10905;DHT22;5505;51.450;9.254;2022-10-16T02:35:44;13.80;99.90
10905;DHT22;5505;51.450;9.254;2022-10-16T02:38:32;13.70;99.90
10905;DHT22;5505;51.450;9.254;2022-10-16T02:41:20;13.70;99.90
10905;DHT22;5505;51.450;9.254;2022-10-16T02:44:07;13.70;99.90
10905;DHT22;5505;51.450;9.254;2022-10-16T02:46:54;13.60;99.90
10905;DHT22;5505;51.450;9.254;2022-10-16T02:49:41;13.60;99.90
10905;DHT22;5505;51.450;9.254;2022-10-16T02:52:29;13.60;99.90
10905;DHT22;5505;51.450;9.254;2022-10-16T02:55:16;13.60;99.90
10905;DHT22;5505;51.450;9.254;2022-10-16T02:58:02;13.60;99.90
10905;DHT22;5505;51.450;9.254;2022-10-16T03:00:49;13.60;99.90
10905;DHT22;5505;51.450;9.254;2022-10-16T03:03:36;13.50;99.90
10905;DHT22;5505;51.450;9.254;2022-10-16T03:06:23;13.50;99.90
10905;DHT22;5505;51.450;9.254;2022-10-16T03:09:11;14.50;99.90
10905;DHT22;5505;51.450;9.254;2022-10-16T03:11:58;13.50;99.90
10905;DHT22;5505;51.450;9.254;2022-10-16T03:14:45;13.50;99.90
10905;DHT22;5505;51.450;9.254;2022-10-16T03:17:32;13.50;99.90
10905;DHT22;5505;51.450;9.254;2022-10-16T03:20:19;13.50;99.90
10905;DHT22;5505;51.450;9.254;2022-10-16T03:23:06;13.50;99.90
10905;DHT22;5505;51.450;9.254;2022-10-16T03:25:55;13.50;99.90
10905;DHT22;5505;51.450;9.254;2022-10-16T03:28:42;14.60;99.90
10905;DHT22;5505;51.450;9.254;2022-10-16T03:31:29;13.40;99.90
10905;DHT22;5505;51.450;9.254;2022-10-16T03:34:16;13.40;99.90
10905;DHT22;5505;51.450;9.254;2022-10-16T03:37:03;13.30;99.90
10905;DHT22;5505;51.450;9.254;2022-10-16T03:39:50;13.20;99.90
10905;DHT22;5505;51.450;9.254;2022-10-16T03:42:38;13.20;99.90
10905;DHT22;5505;51.450;9.254;2022-10-16T03:45:25;13.20;99.90
10905;DHT22;5505;51.450;9.254;2022-10-16T03:48:12;13.20;99.90
10905;DHT22;5505;51.450;9.254;2022-10-16T03:50:59;13.10;99.90
10905;DHT22;5505;51.450;9.254;2022-10-16T03:53:45;13.20;99.90
10905;DHT22;5505;51.450;9.254;2022-10-16T03:56:32;13.20;99.90
10905;DHT22;5505;51.450;9.254;2022-10-16T03:59:20;13.70;99.90
10905;DHT22;5505;51.450;9.254;2022-10-16T04:02:07;13.20;99.90
10905;DHT22;5505;51.450;9.254;2022-10-16T04:04:54;13.20;99.90
10905;DHT22;5505;51.450;9.254;2022-10-16T04:07:41;13.20;99.90
10905;DHT22;5505;51.450;9.254;2022-10-16T04:10:27;13.20;99.90
10905;DHT22;5505;51.450;9.254;2022-10-16T04:13:14;13.30;99.90
10905;DHT22;5505;51.450;9.254;2022-10-16T04:16:03;13.30;99.90
10905;DHT22;5505;51.450;9.254;2022-10-16T04:18:49;13.40;99.90
10905;DHT22;5505;51.450;9.254;2022-10-16T04:21:37;13.40;99.90
10905;DHT22;5505;51.450;9.254;2022-10-16T04:24:23;13.50;99.90
10905;DHT22;5505;51.450;9.254;2022-10-16T04:27:10;14.40;99.90
10905;DHT22;5505;51.450;9.254;2022-10-16T04:29:57;13.40;99.90
10905;DHT22;5505;51.450;9.254;2022-10-16T04:32:48;14.20;99.90
10905;DHT22;5505;51.450;9.254;2022-10-16T04:35:35;13.50;99.90
10905;DHT22;5505;51.450;9.254;2022-10-16T04:38:23;13.50;99.90
10905;DHT22;5505;51.450;9.254;2022-10-16T04:41:12;13.50;99.90
10905;DHT22;5505;51.450;9.254;2022-10-16T04:43:59;13.60;99.90
10905;DHT22;5505;51.450;9.254;2022-10-16T04:46:45;13.70;99.90
10905;DHT22;5505;51.450;9.254;2022-10-16T04:49:34;13.70;99.90
10905;DHT22;5505;51.450;9.254;2022-10-16T04:52:20;13.70;99.90
10905;DHT22;5505;51.450;9.254;2022-10-16T04:55:09;13.80;99.90
10905;DHT22;5505;51.450;9.254;2022-10-16T04:57:56;13.80;99.90
10905;DHT22;5505;51.450;9.254;2022-10-16T05:00:44;13.80;99.90
10905;DHT22;5505;51.450;9.254;2022-10-16T05:03:31;13.80;99.90
10905;DHT22;5505;51.450;9.254;2022-10-16T05:06:19;13.70;99.90
10905;DHT22;5505;51.450;9.254;2022-10-16T05:09:06;13.60;99.90
10905;DHT22;5505;51.450;9.254;2022-10-16T05:11:53;13.60;99.90
10905;DHT22;5505;51.450;9.254;2022-10-16T05:14:40;13.60;99.90
10905;DHT22;5505;51.450;9.254;2022-10-16T05:17:27;13.60;99.90
10905;DHT22;5505;51.450;9.254;2022-10-16T05:20:14;13.60;99.90
10905;DHT22;5505;51.450;9.254;2022-10-16T05:23:02;13.50;99.90
10905;DHT22;5505;51.450;9.254;2022-10-16T05:25:53;13.60;99.90
10905;DHT22;5505;51.450;9.254;2022-10-16T05:28:40;13.50;99.90
10905;DHT22;5505;51.450;9.254;2022-10-16T05:31:27;13.60;99.90
10905;DHT22;5505;51.450;9.254;2022-10-16T05:34:14;13.60;99.90
10905;DHT22;5505;51.450;9.254;2022-10-16T05:37:01;13.60;99.90
10905;DHT22;5505;51.450;9.254;2022-10-16T05:39:49;13.70;99.90
10905;DHT22;5505;51.450;9.254;2022-10-16T05:42:35;13.60;99.90
10905;DHT22;5505;51.450;9.254;2022-10-16T05:45:22;13.60;99.90
10905;DHT22;5505;51.450;9.254;2022-10-16T05:48:09;13.60;99.90
10905;DHT22;5505;51.450;9.254;2022-10-16T05:50:57;13.60;99.90
10905;DHT22;5505;51.450;9.254;2022-10-16T05:53:44;13.60;99.90
10905;DHT22;5505;51.450;9.254;2022-10-16T05:56:32;13.50;99.90
10905;DHT22;5505;51.450;9.254;2022-10-16T05:59:19;13.50;99.90
10905;DHT22;5505;51.450;9.254;2022-10-16T06:02:05;13.60;99.90
10905;DHT22;5505;51.450;9.254;2022-10-16T06:04:52;13.60;99.90
10905;DHT22;5505;51.450;9.254;2022-10-16T06:07:40;14.80;99.90
10905;DHT22;5505;51.450;9.254;2022-10-16T06:10:27;13.70;99.90
10905;DHT22;5505;51.450;9.254;2022-10-16T06:13:15;13.70;99.90
10905;DHT22;5505;51.450;9.254;2022-10-16T06:16:03;13.60;99.90
10905;DHT22;5505;51.450;9.254;2022-10-16T06:18:50;13.70;99.90
10905;DHT22;5505;51.450;9.254;2022-10-16T06:21:38;13.60;99.90
10905;DHT22;5505;51.450;9.254;2022-10-16T06:24:24;14.60;99.90
10905;DHT22;5505;51.450;9.254;2022-10-16T06:27:11;13.70;99.90
10905;DHT22;5505;51.450;9.254;2022-10-16T06:29:59;13.70;99.90
10905;DHT22;5505;51.450;9.254;2022-10-16T06:32:46;13.70;99.90
10905;DHT22;5505;51.450;9.254;2022-10-16T06:35:33;13.70;99.90
10905;DHT22;5505;51.450;9.254;2022-10-16T06:38:19;13.80;99.90
10905;DHT22;5505;51.450;9.254;2022-10-16T06:41:07;13.80;99.90
10905;DHT22;5505;51.450;9.254;2022-10-16T06:43:56;13.70;99.90
10905;DHT22;5505;51.450;9.254;2022-10-16T06:46:44;13.70;99.90
10905;DHT22;5505;51.450;9.254;2022-10-16T06:49:31;13.70;99.90
10905;DHT22;5505;51.450;9.254;2022-10-16T06:52:17;13.70;99.90
10905;DHT22;5505;51.450;9.254;2022-10-16T06:55:05;13.80;99.90
10905;DHT22;5505;51.450;9.254;2022-10-16T06:57:52;13.70;99.90
10905;DHT22;5505;51.450;9.254;2022-10-16T07:00:39;13.80;99.90
10905;DHT22;5505;51.450;9.254;2022-10-16T07:03:27;13.80;99.90
10905;DHT22;5505;51.450;9.254;2022-10-16T07:06:15;13.80;99.90
10905;DHT22;5505;51.450;9.254;2022-10-16T07:09:05;13.80;99.90
10905;DHT22;5505;51.450;9.254;2022-10-16T07:11:52;13.80;99.90
10905;DHT22;5505;51.450;9.254;2022-10-16T07:14:39;13.80;99.90
10905;DHT22;5505;51.450;9.254;2022-10-16T07:17:25;13.90;99.90
10905;DHT22;5505;51.450;9.254;2022-10-16T07:20:14;13.90;99.90
10905;DHT22;5505;51.450;9.254;2022-10-16T07:23:00;13.90;99.90
10905;DHT22;5505;51.450;9.254;2022-10-16T07:25:53;13.90;99.90
10905;DHT22;5505;51.450;9.254;2022-10-16T07:28:43;13.90;99.90
10905;DHT22;5505;51.450;9.254;2022-10-16T07:31:30;14.00;99.90
10905;DHT22;5505;51.450;9.254;2022-10-16T07:34:18;14.10;99.90
10905;DHT22;5505;51.450;9.254;2022-10-16T07:37:08;14.20;99.90
10905;DHT22;5505;51.450;9.254;2022-10-16T07:39:55;14.20;99.90
10905;DHT22;5505;51.450;9.254;2022-10-16T07:42:41;14.20;99.90
10905;DHT22;5505;51.450;9.254;2022-10-16T07:45:29;14.20;99.90
10905;DHT22;5505;51.450;9.254;2022-10-16T07:48:16;14.30;99.90
10905;DHT22;5505;51.450;9.254;2022-10-16T07:51:05;14.20;99.90
10905;DHT22;5505;51.450;9.254;2022-10-16T07:53:54;14.20;99.90
10905;DHT22;5505;51.450;9.254;2022-10-16T07:56:41;14.20;99.90
10905;DHT22;5505;51.450;9.254;2022-10-16T07:59:27;14.30;99.90
10905;DHT22;5505;51.450;9.254;2022-10-16T08:02:30;14.40;99.90
10905;DHT22;5505;51.450;9.254;2022-10-16T08:05:17;14.50;99.90
10905;DHT22;5505;51.450;9.254;2022-10-16T08:08:04;15.30;99.90
10905;DHT22;5505;51.450;9.254;2022-10-16T08:10:52;14.80;99.90
10905;DHT22;5505;51.450;9.254;2022-10-16T08:13:39;14.90;99.90
10905;DHT22;5505;51.450;9.254;2022-10-16T08:16:26;14.90;99.90
10905;DHT22;5505;51.450;9.254;2022-10-16T08:19:12;14.90;99.90
10905;DHT22;5505;51.450;9.254;2022-10-16T08:22:01;15.80;99.90
10905;DHT22;5505;51.450;9.254;2022-10-16T08:24:47;14.90;99.90
10905;DHT22;5505;51.450;9.254;2022-10-16T08:27:35;14.90;99.90
10905;DHT22;5505;51.450;9.254;2022-10-16T08:30:23;15.00;99.90
10905;DHT22;5505;51.450;9.254;2022-10-16T08:33:10;15.00;99.90
10905;DHT22;5505;51.450;9.254;2022-10-16T08:35:57;15.10;99.90
10905;DHT22;5505;51.450;9.254;2022-10-16T08:38:47;15.20;99.90
10905;DHT22;5505;51.450;9.254;2022-10-16T08:41:59;15.20;99.90
10905;DHT22;5505;51.450;9.254;2022-10-16T08:45:02;15.20;99.90
10905;DHT22;5505;51.450;9.254;2022-10-16T08:48:02;15.30;99.90
10905;DHT22;5505;51.450;9.254;2022-10-16T08:50:52;15.40;99.90
10905;DHT22;5505;51.450;9.254;2022-10-16T08:53:44;15.60;99.90
10905;DHT22;5505;51.450;9.254;2022-10-16T08:56:32;15.80;99.90
10905;DHT22;5505;51.450;9.254;2022-10-16T08:59:20;15.80;99.90
10905;DHT22;5505;51.450;9.254;2022-10-16T09:02:23;15.80;99.90
10905;DHT22;5505;51.450;9.254;2022-10-16T09:05:23;16.00;99.90
10905;DHT22;5505;51.450;9.254;2022-10-16T09:08:19;16.10;99.90
10905;DHT22;5505;51.450;9.254;2022-10-16T09:11:14;16.00;99.90
10905;DHT22;5505;51.450;9.254;2022-10-16T09:14:07;16.00;99.90
10905;DHT22;5505;51.450;9.254;2022-10-16T09:17:04;15.90;99.90
10905;DHT22;5505;51.450;9.254;2022-10-16T09:20:12;15.90;99.90
10905;DHT22;5505;51.450;9.254;2022-10-16T09:23:17;15.80;99.90
10905;DHT22;5505;51.450;9.254;2022-10-16T09:26:09;15.90;99.90
10905;DHT22;5505;51.450;9.254;2022-10-16T09:28:56;15.90;99.90
10905;DHT22;5505;51.450;9.254;2022-10-16T09:31:43;16.10;99.90
10905;DHT22;5505;51.450;9.254;2022-10-16T09:34:32;16.30;99.90
10905;DHT22;5505;51.450;9.254;2022-10-16T09:37:22;16.60;99.90
10905;DHT22;5505;51.450;9.254;2022-10-16T09:40:13;16.80;99.90
10905;DHT22;5505;51.450;9.254;2022-10-16T09:43:03;16.90;99.90
10905;DHT22;5505;51.450;9.254;2022-10-16T09:45:55;17.00;99.90
10905;DHT22;5505;51.450;9.254;2022-10-16T09:48:47;16.90;99.90
10905;DHT22;5505;51.450;9.254;2022-10-16T09:51:36;17.60;99.90
10905;DHT22;5505;51.450;9.254;2022-10-16T09:54:25;17.00;99.90
10905;DHT22;5505;51.450;9.254;2022-10-16T09:57:13;16.70;99.90
10905;DHT22;5505;51.450;9.254;2022-10-16T10:00:00;16.90;99.90
10905;DHT22;5505;51.450;9.254;2022-10-16T10:02:55;17.10;99.90
10905;DHT22;5505;51.450;9.254;2022-10-16T10:05:48;17.10;99.90
10905;DHT22;5505;51.450;9.254;2022-10-16T10:08:36;17.20;99.90
10905;DHT22;5505;51.450;9.254;2022-10-16T10:11:48;17.30;99.90
10905;DHT22;5505;51.450;9.254;2022-10-16T10:14:37;17.40;99.90
10905;DHT22;5505;51.450;9.254;2022-10-16T10:17:28;17.40;99.90
10905;DHT22;5505;51.450;9.254;2022-10-16T10:20:22;17.40;99.90
10905;DHT22;5505;51.450;9.254;2022-10-16T10:23:21;17.30;99.90
10905;DHT22;5505;51.450;9.254;2022-10-16T10:26:11;17.30;99.90
10905;DHT22;5505;51.450;9.254;2022-10-16T10:29:06;17.20;99.90
10905;DHT22;5505;51.450;9.254;2022-10-16T10:32:05;17.30;99.90
10905;DHT22;5505;51.450;9.254;2022-10-16T10:35:03;17.30;99.90
10905;DHT22;5505;51.450;9.254;2022-10-16T10:38:03;17.40;99.90
10905;DHT22;5505;51.450;9.254;2022-10-16T10:40:58;17.30;99.90
10905;DHT22;5505;51.450;9.254;2022-10-16T10:43:57;17.30;99.90
10905;DHT22;5505;51.450;9.254;2022-10-16T10:46:50;17.30;99.90
10905;DHT22;5505;51.450;9.254;2022-10-16T10:49:47;17.50;99.90
10905;DHT22;5505;51.450;9.254;2022-10-16T10:52:43;17.60;99.90
10905;DHT22;5505;51.450;9.254;2022-10-16T10:55:38;17.70;99.90
10905;DHT22;5505;51.450;9.254;2022-10-16T10:58:51;17.70;99.90
10905;DHT22;5505;51.450;9.254;2022-10-16T11:01:50;17.60;99.90
10905;DHT22;5505;51.450;9.254;2022-10-16T11:05:03;17.60;99.90
10905;DHT22;5505;51.450;9.254;2022-10-16T11:07:58;17.60;99.90
10905;DHT22;5505;51.450;9.254;2022-10-16T11:10:50;17.70;99.90
10905;DHT22;5505;51.450;9.254;2022-10-16T11:13:42;17.70;99.90
10905;DHT22;5505;51.450;9.254;2022-10-16T11:16:34;17.70;99.90
10905;DHT22;5505;51.450;9.254;2022-10-16T11:19:31;17.70;99.90
10905;DHT22;5505;51.450;9.254;2022-10-16T11:22:24;17.70;99.90
10905;DHT22;5505;51.450;9.254;2022-10-16T11:25:15;17.60;99.90
10905;DHT22;5505;51.450;9.254;2022-10-16T11:28:08;17.60;99.90
10905;DHT22;5505;51.450;9.254;2022-10-16T11:31:00;17.60;99.90
10905;DHT22;5505;51.450;9.254;2022-10-16T11:33:53;17.70;99.90
10905;DHT22;5505;51.450;9.254;2022-10-16T11:36:47;17.80;99.90
10905;DHT22;5505;51.450;9.254;2022-10-16T11:39:35;17.80;99.90
10905;DHT22;5505;51.450;9.254;2022-10-16T11:42:29;17.90;99.90
10905;DHT22;5505;51.450;9.254;2022-10-16T11:45:26;18.00;99.90
10905;DHT22;5505;51.450;9.254;2022-10-16T11:48:21;18.00;99.90
10905;DHT22;5505;51.450;9.254;2022-10-16T11:51:16;18.00;99.90
10905;DHT22;5505;51.450;9.254;2022-10-16T11:54:13;18.00;99.90
10905;DHT22;5505;51.450;9.254;2022-10-16T11:57:08;18.10;99.90
10905;DHT22;5505;51.450;9.254;2022-10-16T12:00:00;18.10;99.90
10905;DHT22;5505;51.450;9.254;2022-10-16T12:02:55;18.20;99.90
10905;DHT22;5505;51.450;9.254;2022-10-16T12:05:55;18.20;99.90
10905;DHT22;5505;51.450;9.254;2022-10-16T12:08:45;18.20;99.90
10905;DHT22;5505;51.450;9.254;2022-10-16T12:11:38;18.40;99.90
10905;DHT22;5505;51.450;9.254;2022-10-16T12:14:37;18.10;99.90
10905;DHT22;5505;51.450;9.254;2022-10-16T12:17:27;18.10;99.90
10905;DHT22;5505;51.450;9.254;2022-10-16T12:20:26;18.10;99.90
10905;DHT22;5505;51.450;9.254;2022-10-16T12:23:20;18.20;99.90
10905;DHT22;5505;51.450;9.254;2022-10-16T12:26:07;18.20;99.90
10905;DHT22;5505;51.450;9.254;2022-10-16T12:29:14;18.20;99.90
10905;DHT22;5505;51.450;9.254;2022-10-16T12:32:03;18.30;99.90
10905;DHT22;5505;51.450;9.254;2022-10-16T12:34:50;18.30;99.90
10905;DHT22;5505;51.450;9.254;2022-10-16T12:37:38;18.20;99.90
10905;DHT22;5505;51.450;9.254;2022-10-16T12:40:27;18.20;99.90
10905;DHT22;5505;51.450;9.254;2022-10-16T12:43:28;18.20;99.90
10905;DHT22;5505;51.450;9.254;2022-10-16T12:46:33;18.20;99.90
10905;DHT22;5505;51.450;9.254;2022-10-16T12:49:29;18.30;99.90
10905;DHT22;5505;51.450;9.254;2022-10-16T12:52:27;18.30;99.90
10905;DHT22;5505;51.450;9.254;2022-10-16T12:55:16;18.30;99.90
10905;DHT22;5505;51.450;9.254;2022-10-16T12:58:17;18.30;99.90
10905;DHT22;5505;51.450;9.254;2022-10-16T13:01:15;18.30;99.90
10905;DHT22;5505;51.450;9.254;2022-10-16T13:04:27;18.20;99.90
10905;DHT22;5505;51.450;9.254;2022-10-16T13:07:48;18.20;99.90
10905;DHT22;5505;51.450;9.254;2022-10-16T13:10:41;18.20;99.90
10905;DHT22;5505;51.450;9.254;2022-10-16T13:13:41;18.30;99.90
10905;DHT22;5505;51.450;9.254;2022-10-16T13:16:40;18.20;99.90
10905;DHT22;5505;51.450;9.254;2022-10-16T13:19:38;18.10;99.90
10905;DHT22;5505;51.450;9.254;2022-10-16T13:22:33;18.20;99.90
10905;DHT22;5505;51.450;9.254;2022-10-16T13:25:30;18.20;99.90
10905;DHT22;5505;51.450;9.254;2022-10-16T13:28:21;19.00;99.90
10905;DHT22;5505;51.450;9.254;2022-10-16T13:31:15;18.20;99.90
10905;DHT22;5505;51.450;9.254;2022-10-16T13:34:03;18.20;99.90
10905;DHT22;5505;51.450;9.254;2022-10-16T13:36:53;18.10;99.90
10905;DHT22;5505;51.450;9.254;2022-10-16T13:39:40;18.10;99.90
10905;DHT22;5505;51.450;9.254;2022-10-16T13:42:28;18.00;99.90
10905;DHT22;5505;51.450;9.254;2022-10-16T13:45:19;17.90;99.90
10905;DHT22;5505;51.450;9.254;2022-10-16T13:48:09;17.80;99.90
10905;DHT22;5505;51.450;9.254;2022-10-16T13:51:05;18.30;99.90
10905;DHT22;5505;51.450;9.254;2022-10-16T13:54:02;17.70;99.90
10905;DHT22;5505;51.450;9.254;2022-10-16T13:56:51;17.80;99.90
10905;DHT22;5505;51.450;9.254;2022-10-16T13:59:38;17.90;99.90
10905;DHT22;5505;51.450;9.254;2022-10-16T14:02:27;17.90;99.90
10905;DHT22;5505;51.450;9.254;2022-10-16T14:05:15;18.00;99.90
10905;DHT22;5505;51.450;9.254;2022-10-16T14:08:02;17.90;99.90
10905;DHT22;5505;51.450;9.254;2022-10-16T14:10:52;18.00;99.90
10905;DHT22;5505;51.450;9.254;2022-10-16T14:13:43;17.90;99.90
10905;DHT22;5505;51.450;9.254;2022-10-16T14:16:31;17.90;99.90
10905;DHT22;5505;51.450;9.254;2022-10-16T14:19:21;17.90;99.90
10905;DHT22;5505;51.450;9.254;2022-10-16T14:22:24;17.80;99.90
10905;DHT22;5505;51.450;9.254;2022-10-16T14:25:30;17.90;99.90
10905;DHT22;5505;51.450;9.254;2022-10-16T14:28:21;18.00;99.90
10905;DHT22;5505;51.450;9.254;2022-10-16T14:31:25;18.10;99.90
10905;DHT22;5505;51.450;9.254;2022-10-16T14:34:26;18.10;99.90
10905;DHT22;5505;51.450;9.254;2022-10-16T14:37:20;18.10;99.90
10905;DHT22;5505;51.450;9.254;2022-10-16T14:40:14;18.10;99.90
10905;DHT22;5505;51.450;9.254;2022-10-16T14:43:03;18.00;99.90
10905;DHT22;5505;51.450;9.254;2022-10-16T14:45:54;17.90;99.90
10905;DHT22;5505;51.450;9.254;2022-10-16T14:48:42;17.90;99.90
10905;DHT22;5505;51.450;9.254;2022-10-16T14:51:29;17.80;99.90
10905;DHT22;5505;51.450;9.254;2022-10-16T14:54:17;17.70;99.90
10905;DHT22;5505;51.450;9.254;2022-10-16T14:57:05;17.60;99.90
10905;DHT22;5505;51.450;9.254;2022-10-16T14:59:52;17.60;99.90
10905;DHT22;5505;51.450;9.254;2022-10-16T15:02:40;18.20;99.90
10905;DHT22;5505;51.450;9.254;2022-10-16T15:05:27;17.40;99.90
10905;DHT22;5505;51.450;9.254;2022-10-16T15:08:14;17.40;99.90
10905;DHT22;5505;51.450;9.254;2022-10-16T15:11:01;17.40;99.90
10905;DHT22;5505;51.450;9.254;2022-10-16T15:13:48;17.50;99.90
10905;DHT22;5505;51.450;9.254;2022-10-16T15:16:35;17.60;99.90
10905;DHT22;5505;51.450;9.254;2022-10-16T15:19:23;17.70;99.90
10905;DHT22;5505;51.450;9.254;2022-10-16T15:22:11;17.70;99.90
10905;DHT22;5505;51.450;9.254;2022-10-16T15:24:57;17.70;99.90
10905;DHT22;5505;51.450;9.254;2022-10-16T15:27:44;17.70;99.90
10905;DHT22;5505;51.450;9.254;2022-10-16T15:30:31;17.70;99.90
10905;DHT22;5505;51.450;9.254;2022-10-16T15:33:20;17.60;99.90
10905;DHT22;5505;51.450;9.254;2022-10-16T15:36:09;17.60;99.90
10905;DHT22;5505;51.450;9.254;2022-10-16T15:38:57;17.50;99.90
10905;DHT22;5505;51.450;9.254;2022-10-16T15:41:45;17.50;99.90
10905;DHT22;5505;51.450;9.254;2022-10-16T15:44:35;17.50;99.90
10905;DHT22;5505;51.450;9.254;2022-10-16T15:47:22;17.50;99.90
10905;DHT22;5505;51.450;9.254;2022-10-16T15:50:10;17.40;99.90
10905;DHT22;5505;51.450;9.254;2022-10-16T15:52:59;17.40;99.90
10905;DHT22;5505;51.450;9.254;2022-10-16T15:55:46;17.30;99.90
10905;DHT22;5505;51.450;9.254;2022-10-16T15:58:33;17.80;99.90
10905;DHT22;5505;51.450;9.254;2022-10-16T16:01:19;17.30;99.90
10905;DHT22;5505;51.450;9.254;2022-10-16T16:04:07;17.70;99.90
10905;DHT22;5505;51.450;9.254;2022-10-16T16:06:53;17.20;99.90
10905;DHT22;5505;51.450;9.254;2022-10-16T16:09:42;17.20;99.90
10905;DHT22;5505;51.450;9.254;2022-10-16T16:12:30;17.20;99.90
10905;DHT22;5505;51.450;9.254;2022-10-16T16:15:17;17.10;99.90
10905;DHT22;5505;51.450;9.254;2022-10-16T16:18:04;17.10;99.90
10905;DHT22;5505;51.450;9.254;2022-10-16T16:20:51;17.00;99.90
10905;DHT22;5505;51.450;9.254;2022-10-16T16:23:38;16.90;99.90
10905;DHT22;5505;51.450;9.254;2022-10-16T16:26:27;16.90;99.90
10905;DHT22;5505;51.450;9.254;2022-10-16T16:29:17;16.90;99.90
10905;DHT22;5505;51.450;9.254;2022-10-16T16:32:04;16.80;99.90
10905;DHT22;5505;51.450;9.254;2022-10-16T16:34:51;16.70;99.90
10905;DHT22;5505;51.450;9.254;2022-10-16T16:37:38;16.60;99.90
10905;DHT22;5505;51.450;9.254;2022-10-16T16:40:25;16.60;99.90
10905;DHT22;5505;51.450;9.254;2022-10-16T16:43:14;16.60;99.90
10905;DHT22;5505;51.450;9.254;2022-10-16T16:46:01;16.60;99.90
10905;DHT22;5505;51.450;9.254;2022-10-16T16:48:48;16.50;99.90
10905;DHT22;5505;51.450;9.254;2022-10-16T16:51:37;16.50;99.90
10905;DHT22;5505;51.450;9.254;2022-10-16T16:54:24;16.40;99.90
10905;DHT22;5505;51.450;9.254;2022-10-16T16:57:11;16.30;99.90
10905;DHT22;5505;51.450;9.254;2022-10-16T16:59:59;17.10;99.90
10905;DHT22;5505;51.450;9.254;2022-10-16T17:02:48;16.30;99.90
10905;DHT22;5505;51.450;9.254;2022-10-16T17:05:35;16.20;99.90
10905;DHT22;5505;51.450;9.254;2022-10-16T17:08:21;16.20;99.90
10905;DHT22;5505;51.450;9.254;2022-10-16T17:11:12;16.20;99.90
10905;DHT22;5505;51.450;9.254;2022-10-16T17:14:00;16.20;99.90
10905;DHT22;5505;51.450;9.254;2022-10-16T17:16:49;16.90;99.90
10905;DHT22;5505;51.450;9.254;2022-10-16T17:19:38;16.10;99.90
10905;DHT22;5505;51.450;9.254;2022-10-16T17:22:24;16.20;99.90
10905;DHT22;5505;51.450;9.254;2022-10-16T17:25:11;16.90;99.90
10905;DHT22;5505;51.450;9.254;2022-10-16T17:27:58;16.10;99.90
10905;DHT22;5505;51.450;9.254;2022-10-16T17:30:45;16.00;99.90
10905;DHT22;5505;51.450;9.254;2022-10-16T17:33:33;16.00;99.90
10905;DHT22;5505;51.450;9.254;2022-10-16T17:36:20;15.90;99.90
10905;DHT22;5505;51.450;9.254;2022-10-16T17:39:09;15.90;99.90
10905;DHT22;5505;51.450;9.254;2022-10-16T17:41:56;15.80;99.90
10905;DHT22;5505;51.450;9.254;2022-10-16T17:44:43;15.70;99.90
10905;DHT22;5505;51.450;9.254;2022-10-16T17:47:30;15.70;99.90
10905;DHT22;5505;51.450;9.254;2022-10-16T17:50:18;15.60;99.90
10905;DHT22;5505;51.450;9.254;2022-10-16T17:53:05;15.70;99.90
10905;DHT22;5505;51.450;9.254;2022-10-16T17:55:52;15.60;99.90
10905;DHT22;5505;51.450;9.254;2022-10-16T17:58:46;15.60;99.90
10905;DHT22;5505;51.450;9.254;2022-10-16T18:01:34;15.60;99.90
10905;DHT22;5505;51.450;9.254;2022-10-16T18:04:22;15.50;99.90
10905;DHT22;5505;51.450;9.254;2022-10-16T18:07:11;15.50;99.90
10905;DHT22;5505;51.450;9.254;2022-10-16T18:09:58;15.40;99.90